Time;durP1;ratioP1;P1;durP2;ratioP2;P2;SDS_P1;SDS_P2;PMS_P1;PMS_P2;Temp;Humidity;BMP_temperature;BMP_pressure;BME280_temperature;BME280_humidity;BME280_pressure;Samples;Min_cycle;Max_cycle;Signal;HPM_P1;HPM_P2
2022/12/04 00:01:10;;;;;;;56.40;19.67;;;;;;;-148.88;100.00;77760.19;5015907;28;20092;-81
2022/12/04 00:03:37;;;;;;;54.95;18.67;;;;;;;-148.88;100.00;77766.28;5019299;28;20104;-83
2022/12/04 00:06:12;;;;;;;52.22;19.60;;;;;;;-148.88;100.00;77768.31;5017684;28;20045;-83
2022/12/04 00:08:38;;;;;;;58.97;19.17;;;;;;;-148.88;100.00;77768.31;5017487;28;20030;-82
2022/12/04 00:11:04;;;;;;;55.55;19.77;;;;;;;-148.88;100.00;77758.16;5015101;28;20037;-82
2022/12/04 00:13:31;;;;;;;63.78;21.83;;;;;;;-148.88;100.00;77766.28;5015271;28;20033;-79
2022/12/04 00:15:58;;;;;;;57.25;18.08;;;;;;;-148.88;100.00;77766.28;5014199;28;20148;-80
2022/12/04 00:18:23;;;;;;;56.25;20.63;;;;;;;-148.88;100.00;77760.19;5014360;28;20030;-81
2022/12/04 00:20:48;;;;;;;67.72;21.00;;;;;;;-148.88;100.00;77754.09;5015265;28;20036;-81
2022/12/04 00:23:14;;;;;;;50.40;20.08;;;;;;;-148.88;100.00;77760.19;5014060;28;20026;-81
2022/12/04 00:25:39;;;;;;;56.53;19.45;;;;;;;-148.88;100.00;77756.13;5027862;28;20025;-81
2022/12/04 00:28:04;;;;;;;61.53;20.38;;;;;;;-148.88;100.00;77750.03;5029687;28;20026;-80
2022/12/04 00:30:30;;;;;;;59.13;20.13;;;;;;;-148.88;100.00;77745.97;5027545;28;20052;-82
2022/12/04 00:32:55;;;;;;;59.92;20.55;;;;;;;-148.88;100.00;77739.84;5029393;28;20037;-82
2022/12/04 00:35:20;;;;;;;54.55;18.45;;;;;;;-148.88;100.00;77739.84;5028701;28;20480;-82
2022/12/04 00:37:45;;;;;;;58.33;19.50;;;;;;;-148.88;100.00;77750.03;5025480;28;20022;-83
2022/12/04 00:40:11;;;;;;;55.60;20.58;;;;;;;-148.88;100.00;77752.06;5018386;28;20034;-83
2022/12/04 00:42:36;;;;;;;52.50;18.52;;;;;;;-148.88;100.00;77741.88;5015585;28;20021;-83
2022/12/04 00:45:02;;;;;;;51.80;18.70;;;;;;;-148.88;100.00;77741.88;5016166;28;20492;-83
2022/12/04 00:47:28;;;;;;;52.47;18.90;;;;;;;-148.88;100.00;77748.00;5015121;28;20026;-81
2022/12/04 00:49:53;;;;;;;56.90;19.90;;;;;;;-148.88;100.00;77743.94;5016639;28;20041;-82
2022/12/04 00:52:18;;;;;;;59.15;20.67;;;;;;;-148.88;100.00;77743.94;5016962;28;20034;-83
2022/12/04 00:54:44;;;;;;;57.30;20.63;;;;;;;-148.88;100.00;77748.00;5015663;28;20034;-82
2022/12/04 00:57:09;;;;;;;58.47;20.58;;;;;;;-148.88;100.00;77748.00;5016977;28;20433;-83
2022/12/04 00:59:36;;;;;;;61.40;18.38;;;;;;;-148.88;100.00;77741.88;5015291;28;20029;-81
2022/12/04 01:02:02;;;;;;;58.25;19.67;;;;;;;-148.88;100.00;77743.94;5015203;28;20024;-82
2022/12/04 01:04:27;;;;;;;67.22;21.27;;;;;;;-148.88;100.00;77739.84;5015112;28;20014;-83
2022/12/04 01:06:52;;;;;;;57.50;18.27;;;;;;;-148.88;100.00;77735.78;5015031;28;20045;-83
2022/12/04 01:09:18;;;;;;;66.72;20.58;;;;;;;-148.88;100.00;77739.84;5016049;28;20022;-82
2022/12/04 01:11:44;;;;;;;66.57;21.63;;;;;;;-148.88;100.00;77743.94;5014446;28;20026;-81
2022/12/04 01:14:09;;;;;;;60.60;19.80;;;;;;;-148.88;100.00;77741.88;5014940;28;20029;-81
2022/12/04 01:16:37;;;;;;;59.47;19.65;;;;;;;-148.88;100.00;77737.81;5013555;28;20029;-81
2022/12/04 01:19:05;;;;;;;67.60;20.70;;;;;;;-148.88;100.00;77735.78;5013214;28;20377;-82
2022/12/04 01:21:31;;;;;;;58.42;18.63;;;;;;;-148.88;100.00;77739.84;5013795;28;20025;-81
2022/12/04 01:23:57;;;;;;;63.80;19.85;;;;;;;-148.88;100.00;77737.81;5012821;28;20026;-82
2022/12/04 01:26:23;;;;;;;55.95;19.35;;;;;;;-148.88;100.00;77743.94;5013143;28;20034;-82
2022/12/04 01:28:48;;;;;;;57.10;18.23;;;;;;;-148.88;100.00;77735.78;5012873;28;20484;-82
2022/12/04 01:31:16;;;;;;;65.88;20.00;;;;;;;-148.88;100.00;77737.81;5012867;28;20025;-81
2022/12/04 01:33:43;;;;;;;61.25;20.88;;;;;;;-148.88;100.00;77731.72;5012661;28;20369;-80
2022/12/04 01:36:12;;;;;;;66.35;19.25;;;;;;;-148.88;100.00;77739.84;5013025;28;20113;-81
2022/12/04 01:38:38;;;;;;;59.97;20.88;;;;;;;-148.88;100.00;77741.88;5014187;28;20109;-81
2022/12/04 01:41:04;;;;;;;66.65;20.13;;;;;;;-148.88;100.00;77743.94;5012928;28;20060;-81
2022/12/04 01:43:32;;;;;;;60.08;19.05;;;;;;;-148.88;100.00;77743.94;5012532;28;20080;-79
2022/12/04 01:45:59;;;;;;;61.78;19.42;;;;;;;-148.88;100.00;77741.88;5012538;28;20025;-81
2022/12/04 01:48:38;;;;;;;62.83;19.20;;;;;;;-148.88;100.00;77735.78;5017421;28;20037;-84
2022/12/04 01:51:27;;;;;;;66.90;20.83;;;;;;;-148.88;100.00;77733.75;5015175;28;20113;-82
2022/12/04 01:53:56;;;;;;;59.72;19.23;;;;;;;-148.88;100.00;77735.78;5037187;22;20038;-74
2022/12/04 01:56:29;;;;;;;56.67;18.88;;;;;;;-148.88;100.00;77731.72;5011623;28;20045;-73
2022/12/04 01:58:58;;;;;;;62.22;18.80;;;;;;;-148.88;100.00;77750.03;5013922;28;20072;-73
2022/12/04 02:01:26;;;;;;;59.50;18.08;;;;;;;-148.88;100.00;77756.13;5012335;28;20120;-73
2022/12/04 02:03:53;;;;;;;65.82;20.58;;;;;;;-148.88;100.00;77743.94;5012382;28;20021;-73
2022/12/04 02:06:18;;;;;;;62.88;20.25;;;;;;;-148.88;100.00;77743.94;5013818;28;20026;-73
2022/12/04 02:08:45;;;;;;;66.75;19.85;;;;;;;-148.88;100.00;77748.00;5013905;28;20038;-72
2022/12/04 02:11:36;;;;;;;68.82;19.90;;;;;;;-148.88;100.00;77741.88;5013600;28;20093;-72
2022/12/04 02:14:34;;;;;;;59.00;18.88;;;;;;;-148.88;100.00;77752.06;5013660;28;20033;-73
2022/12/04 02:17:08;;;;;;;64.88;21.55;;;;;;;-148.88;100.00;77743.94;5013546;28;20034;-73
2022/12/04 02:19:51;;;;;;;;;;;;;;;-148.88;100.00;77743.94;5013938;28;20037;-73
2022/12/04 02:22:51;;;;;;;59.97;19.30;;;;;;;-148.88;100.00;77735.78;5013504;28;19941;-73
2022/12/04 02:25:35;;;;;;;57.75;18.08;;;;;;;-148.88;100.00;77735.78;5013387;28;20255;-73
2022/12/04 02:28:08;;;;;;;59.42;19.77;;;;;;;-148.88;100.00;77733.75;5013355;28;20072;-73
2022/12/04 02:30:37;;;;;;;62.35;19.23;;;;;;;-148.88;100.00;77733.75;5012204;28;20026;-73
2022/12/04 02:33:21;;;;;;;60.90;19.65;;;;;;;-148.88;100.00;77731.72;5013191;28;20025;-73
2022/12/04 02:36:17;;;;;;;60.28;19.63;;;;;;;-148.88;100.00;77737.81;5013427;28;20029;-73
2022/12/04 02:38:49;;;;;;;51.13;18.42;;;;;;;-148.88;100.00;77737.81;5010367;28;20513;-73
2022/12/04 02:41:33;;;;;;;61.10;19.83;;;;;;;-148.88;100.00;77743.94;5013192;28;20029;-73
2022/12/04 02:44:22;;;;;;;58.95;17.77;;;;;;;-148.88;100.00;77733.75;5013118;28;20022;-73
2022/12/04 02:46:54;;;;;;;59.42;18.00;;;;;;;-148.88;100.00;77731.72;5013442;28;20467;-72
2022/12/04 02:49:26;;;;;;;60.50;18.65;;;;;;;-148.88;100.00;77737.81;5011940;28;20028;-73
2022/12/04 02:51:53;;;;;;;53.17;16.92;;;;;;;-148.88;100.00;77731.72;5013177;28;20022;-73
2022/12/04 02:54:34;;;;;;;60.60;19.50;;;;;;;-148.88;100.00;77731.72;5012848;28;20030;-73
2022/12/04 02:57:03;;;;;;;56.42;18.98;;;;;;;-148.88;100.00;77723.59;5013177;28;20040;-73
2022/12/04 02:59:35;;;;;;;65.97;19.88;;;;;;;-148.88;100.00;77727.66;5013060;28;20053;-73
2022/12/04 03:02:08;;;;;;;58.08;18.95;;;;;;;-148.88;100.00;77727.66;5011848;28;20022;-72
2022/12/04 03:04:35;;;;;;;55.72;18.13;;;;;;;-148.88;100.00;77723.59;5011661;28;20052;-73
2022/12/04 03:07:09;;;;;;;56.70;17.98;;;;;;;-148.88;100.00;77723.59;5016976;28;20476;-73
2022/12/04 03:09:58;;;;;;;60.33;18.92;;;;;;;-148.88;100.00;77731.72;5017238;28;20021;-73
2022/12/04 03:12:47;;;;;;;63.70;20.10;;;;;;;-148.88;100.00;77735.78;5015556;28;20056;-73
2022/12/04 03:15:25;;;;;;;62.83;19.27;;;;;;;-148.88;100.00;77729.69;5016767;28;20105;-73
2022/12/04 03:18:04;;;;;;;59.60;17.95;;;;;;;-148.88;100.00;77733.75;5017030;28;20424;-73
2022/12/04 03:20:33;;;;;;;56.40;17.83;;;;;;;-148.88;100.00;77729.69;5016994;28;20072;-73
2022/12/04 03:23:07;;;;;;;60.60;18.23;;;;;;;-148.88;100.00;77733.75;5016804;28;20045;-72
2022/12/04 03:25:42;;;;;;;63.20;18.75;;;;;;;-148.88;100.00;77731.72;5016665;28;20018;-73
2022/12/04 03:28:15;;;;;;;62.25;18.48;;;;;;;-148.88;100.00;77739.84;5016692;28;20121;-73
2022/12/04 03:30:48;;;;;;;66.55;19.05;;;;;;;-148.88;100.00;77743.94;5015282;28;20053;-73
2022/12/04 03:33:28;;;;;;;54.75;16.35;;;;;;;-148.88;100.00;77741.88;5015157;28;20579;-73
2022/12/04 03:36:08;;;;;;;61.40;18.58;;;;;;;-148.88;100.00;77743.94;5016516;28;20042;-73
2022/12/04 03:39:30;;;;;;;60.28;19.20;;;;;;;-148.88;100.00;77743.94;5016353;28;20044;-73
2022/12/04 03:42:07;;;;;;;50.75;18.73;;;;;;;-148.88;100.00;77741.88;5007334;28;20030;-73
2022/12/04 03:45:04;;;;;;;57.67;17.60;;;;;;;-148.88;100.00;77743.94;5016292;28;20045;-73
2022/12/04 03:47:50;;;;;;;53.67;17.50;;;;;;;-148.88;100.00;77739.84;5001908;28;20044;-73
2022/12/04 03:50:24;;;;;;;50.78;16.25;;;;;;;-148.88;100.00;77731.72;5014977;28;20022;-73
2022/12/04 03:52:58;;;;;;;60.10;18.80;;;;;;;-148.88;100.00;77743.94;5016078;28;20068;-73
2022/12/04 03:55:48;;;;;;;53.42;17.52;;;;;;;-148.88;100.00;77735.78;5014616;28;20495;-73
2022/12/04 03:58:21;;;;;;;60.45;16.98;;;;;;;-148.88;100.00;77735.78;5016502;28;20057;-72
2022/12/04 04:00:51;;;;;;;46.47;16.02;;;;;;;-148.88;100.00;77725.63;5016387;28;20434;-72
2022/12/04 04:03:25;;;;;;;57.95;18.25;;;;;;;-148.88;100.00;77731.72;5015921;28;20037;-73
2022/12/04 04:05:55;;;;;;;59.72;18.08;;;;;;;-148.88;100.00;77715.47;5016230;28;20374;-73
2022/12/04 04:08:26;;;;;;;47.13;16.48;;;;;;;-148.88;100.00;77721.56;5014683;28;20026;-73
2022/12/04 04:10:56;;;;;;;52.75;17.13;;;;;;;-148.88;100.00;77729.69;5015764;28;20108;-73
2022/12/04 04:24:39;;;;;;;59.55;17.92;;;;;;;-148.88;100.00;77737.81;5015881;28;20079;-73
2022/12/04 04:27:04;;;;;;;53.60;15.45;;;;;;;-148.88;100.00;77729.69;5015685;28;20483;-72
2022/12/04 04:29:30;;;;;;;51.17;16.85;;;;;;;-148.88;100.00;77727.66;5015385;28;20037;-73
2022/12/04 04:32:20;;;;;;;55.03;17.70;;;;;;;-148.88;100.00;77731.72;5015683;28;20044;-73
2022/12/04 04:34:56;;;;;;;51.60;16.35;;;;;;;-148.88;100.00;77731.72;5015159;28;20391;-73
2022/12/04 04:37:28;;;;;;;43.20;15.60;;;;;;;-148.88;100.00;77735.78;5014243;28;20101;-72
2022/12/04 04:40:08;;;;;;;48.42;16.42;;;;;;;-148.88;100.00;77737.81;5015505;28;20383;-73
2022/12/04 04:42:43;;;;;;;51.45;16.02;;;;;;;-148.88;100.00;77733.75;5015213;28;20030;-72
2022/12/04 04:45:16;;;;;;;52.40;17.05;;;;;;;-148.88;100.00;77737.81;5015367;28;20489;-73
2022/12/04 04:47:51;;;;;;;48.40;15.40;;;;;;;-148.88;100.00;77743.94;5015167;28;20041;-73
2022/12/04 04:50:18;;;;;;;43.47;14.38;;;;;;;-148.88;100.00;77739.84;5015125;28;20034;-73
2022/12/04 04:52:49;;;;;;;50.28;14.52;;;;;;;-148.88;100.00;77731.72;5014884;28;20030;-73
2022/12/04 04:55:16;;;;;;;45.60;15.18;;;;;;;-148.88;100.00;77731.72;5013363;28;20117;-73
2022/12/04 04:57:42;;;;;;;45.10;15.68;;;;;;;-148.88;100.00;77731.72;5014875;28;20026;-73
2022/12/04 05:00:12;;;;;;;44.63;14.65;;;;;;;-148.88;100.00;77731.72;5013615;28;20084;-72
2022/12/04 05:02:37;;;;;;;50.40;14.45;;;;;;;-148.88;100.00;77731.72;5014767;28;20033;-72
2022/12/04 05:05:03;;;;;;;52.92;15.27;;;;;;;-148.88;100.00;77725.63;5014661;28;20026;-73
2022/12/04 05:07:28;;;;;;;47.38;14.77;;;;;;;-148.88;100.00;77731.72;5014756;28;20439;-72
2022/12/04 05:09:53;;;;;;;42.28;13.32;;;;;;;-148.88;100.00;77723.59;5013464;28;20037;-73
2022/12/04 05:12:19;;;;;;;45.92;14.77;;;;;;;-148.88;100.00;77723.59;5014617;28;20025;-72
2022/12/04 05:14:47;;;;;;;45.65;14.45;;;;;;;-148.88;100.00;77727.66;5013164;28;20025;-73
2022/12/04 05:17:12;;;;;;;41.63;12.15;;;;;;;-148.88;100.00;77725.63;5013313;28;20120;-73
2022/12/04 05:19:53;;;;;;;42.80;12.77;;;;;;;-148.88;100.00;77725.63;5014736;28;20100;-73
2022/12/04 05:22:20;;;;;;;43.75;14.15;;;;;;;-148.88;100.00;77719.53;5014790;28;20029;-72
2022/12/04 05:24:45;;;;;;;45.45;15.05;;;;;;;-148.88;100.00;77731.72;5014334;28;20467;-73
2022/12/04 05:27:11;;;;;;;47.80;14.93;;;;;;;-148.88;100.00;77729.69;5014102;28;20092;-73
2022/12/04 05:29:36;;;;;;;47.35;14.18;;;;;;;-148.88;100.00;77727.66;5013915;28;20036;-73
2022/12/04 05:32:02;;;;;;;44.90;14.10;;;;;;;-148.88;100.00;77725.63;5014364;28;20084;-73
2022/12/04 05:34:27;;;;;;;45.75;13.20;;;;;;;-148.88;100.00;77729.69;5014046;28;20092;-72
2022/12/04 05:36:53;;;;;;;35.58;13.18;;;;;;;-148.88;100.00;77735.78;5014181;28;20041;-73
2022/12/04 05:39:18;;;;;;;43.90;13.18;;;;;;;-148.88;100.00;77727.66;5014642;28;20030;-73
2022/12/04 05:41:43;;;;;;;42.15;13.60;;;;;;;-148.88;100.00;77727.66;5012775;28;20026;-72
2022/12/04 05:44:09;;;;;;;40.38;13.75;;;;;;;-148.88;100.00;77719.53;5012651;28;20028;-73
2022/12/04 05:46:34;;;;;;;43.80;13.00;;;;;;;-148.88;100.00;77715.47;5013978;28;20395;-73
2022/12/04 05:48:59;;;;;;;44.15;12.70;;;;;;;-148.88;100.00;77715.47;5014558;28;20053;-72
2022/12/04 05:51:25;;;;;;;40.58;12.38;;;;;;;-148.88;100.00;77719.53;5014119;28;20050;-72
2022/12/04 05:53:51;;;;;;;43.13;12.80;;;;;;;-148.88;100.00;77715.47;5013696;28;20026;-73
2022/12/04 05:56:16;;;;;;;36.03;11.65;;;;;;;-148.88;100.00;77707.34;5012437;28;20072;-73
2022/12/04 05:58:42;;;;;;;40.63;12.40;;;;;;;-148.88;100.00;77709.38;5013952;28;20054;-72
2022/12/04 06:01:12;;;;;;;46.08;14.00;;;;;;;-148.88;100.00;77715.47;5013688;28;20022;-73
2022/12/04 06:03:38;;;;;;;43.83;12.98;;;;;;;-148.88;100.00;77715.47;5014150;28;20029;-73
2022/12/04 06:06:03;;;;;;;40.97;11.80;;;;;;;-148.88;100.00;77715.47;5012422;28;20018;-73
2022/12/04 06:08:29;;;;;;;38.90;12.43;;;;;;;-148.88;100.00;77713.44;5013596;28;20029;-73
2022/12/04 06:10:55;;;;;;;40.00;12.63;;;;;;;-148.88;100.00;77707.34;5013599;28;20498;-73
2022/12/04 06:13:20;;;;;;;41.55;12.55;;;;;;;-148.88;100.00;77711.41;5013354;28;20026;-73
2022/12/04 06:15:45;;;;;;;53.20;15.25;;;;;;;-148.88;100.00;77717.50;5014040;28;20122;-73
2022/12/04 06:18:11;;;;;;;37.90;12.32;;;;;;;-148.88;100.00;77711.41;5012192;28;20018;-73
2022/12/04 06:20:36;;;;;;;37.10;12.90;;;;;;;-148.88;100.00;77719.53;5013915;28;20081;-73
2022/12/04 06:23:01;;;;;;;33.80;12.57;;;;;;;-148.88;100.00;77717.50;5013420;28;20018;-73
2022/12/04 06:25:27;;;;;;;41.38;12.85;;;;;;;-148.88;100.00;77719.53;5013352;28;20051;-73
2022/12/04 06:27:55;;;;;;;44.78;14.07;;;;;;;-148.88;100.00;77719.53;5013395;28;20111;-72
2022/12/04 06:30:21;;;;;;;40.15;12.55;;;;;;;-148.88;100.00;77723.59;5013618;28;20372;-72
2022/12/04 06:32:47;;;;;;;39.92;12.23;;;;;;;-148.88;100.00;77723.59;5011858;28;20033;-73
2022/12/04 06:35:12;;;;;;;45.10;13.07;;;;;;;-148.88;100.00;77723.59;5013151;28;20041;-72
2022/12/04 06:37:37;;;;;;;40.20;12.73;;;;;;;-148.88;100.00;77721.56;5013584;28;20383;-72
2022/12/04 06:40:03;;;;;;;39.17;12.38;;;;;;;-148.88;100.00;77723.59;5013511;28;20026;-72
2022/12/04 06:42:28;;;;;;;42.70;13.50;;;;;;;-148.88;100.00;77725.63;5013218;28;20018;-72
2022/12/04 06:44:54;;;;;;;49.53;14.85;;;;;;;-148.88;100.00;77719.53;5011767;28;20057;-72
2022/12/04 06:47:19;;;;;;;36.20;11.73;;;;;;;-148.88;100.00;77723.59;5013571;28;20029;-72
2022/12/04 06:49:48;;;;;;;43.28;15.25;;;;;;;-148.88;100.00;77719.53;5013142;28;20028;-72
2022/12/04 06:52:13;;;;;;;47.50;14.05;;;;;;;-148.88;100.00;77719.53;5013083;28;20029;-72
2022/12/04 06:54:39;;;;;;;40.80;13.90;;;;;;;-148.88;100.00;77717.50;5012868;28;20021;-72
2022/12/04 06:57:04;;;;;;;45.05;13.32;;;;;;;-148.88;100.00;77717.50;5013027;28;20029;-72
2022/12/04 06:59:31;;;;;;;46.20;15.18;;;;;;;-148.88;100.00;77715.47;5013304;28;20472;-72
2022/12/04 07:01:56;;;;;;;44.17;13.70;;;;;;;-148.88;100.00;77723.59;5013150;28;20045;-72
2022/12/04 07:04:22;;;;;;;42.03;13.32;;;;;;;-148.88;100.00;77719.53;5013448;28;20061;-72
2022/12/04 07:06:47;;;;;;;43.05;12.63;;;;;;;-148.88;100.00;77715.47;5012986;28;20029;-72
2022/12/04 07:09:15;;;;;;;40.58;15.00;;;;;;;-148.88;100.00;77719.53;5011661;28;20061;-72
2022/12/04 07:11:42;;;;;;;40.13;13.00;;;;;;;-148.88;100.00;77709.38;5012976;28;20049;-72
2022/12/04 07:14:08;;;;;;;41.22;14.10;;;;;;;-148.88;100.00;77715.47;5012765;28;20101;-72
2022/12/04 07:16:34;;;;;;;40.53;13.05;;;;;;;-148.88;100.00;77715.47;5013215;28;20458;-72
2022/12/04 07:18:59;;;;;;;41.10;14.60;;;;;;;-148.88;100.00;77719.53;5012974;28;20490;-72
2022/12/04 07:21:28;;;;;;;37.63;13.77;;;;;;;-148.88;100.00;77721.56;5011635;28;20500;-72
2022/12/04 07:23:56;;;;;;;43.85;14.88;;;;;;;-148.88;100.00;77715.47;5012791;28;20053;-72
2022/12/04 07:26:23;;;;;;;53.97;13.55;;;;;;;-148.88;100.00;77723.59;5012894;28;20479;-72
2022/12/04 07:28:48;;;;;;;46.17;13.85;;;;;;;-148.88;100.00;77723.59;5013023;28;20109;-72
2022/12/04 07:31:18;;;;;;;45.47;14.20;;;;;;;-148.88;100.00;77719.53;5013121;28;20061;-72
2022/12/04 07:33:44;;;;;;;45.75;13.88;;;;;;;-148.88;100.00;77721.56;5012718;28;20398;-73
2022/12/04 07:36:13;;;;;;;41.78;14.07;;;;;;;-148.88;100.00;77719.53;5011460;28;20495;-72
2022/12/04 07:38:39;;;;;;;45.92;14.07;;;;;;;-148.88;100.00;77717.50;5013072;28;20034;-72
2022/12/04 07:41:06;;;;;;;47.53;14.63;;;;;;;-148.88;100.00;77719.53;5013016;28;20026;-72
2022/12/04 07:43:32;;;;;;;51.65;16.10;;;;;;;-148.88;100.00;77725.63;5012637;28;20021;-72
2022/12/04 07:46:02;;;;;;;44.47;15.25;;;;;;;-148.88;100.00;77721.56;5011357;28;20108;-72
2022/12/04 07:48:27;;;;;;;53.60;15.95;;;;;;;-148.88;100.00;77719.53;5012845;28;20025;-72
2022/12/04 07:51:06;;;;;;;49.63;16.30;;;;;;;-148.88;100.00;77723.59;5013073;28;20029;-72
2022/12/04 07:53:33;;;;;;;44.20;15.70;;;;;;;-148.88;100.00;77715.47;5016341;28;20021;-72
2022/12/04 07:56:01;;;;;;;52.50;14.93;;;;;;;-148.88;100.00;77715.47;5014668;28;20109;-72
2022/12/04 07:58:26;;;;;;;53.47;16.60;;;;;;;-148.88;100.00;77715.47;5016354;28;20105;-72
2022/12/04 08:00:52;;;;;;;40.45;14.80;;;;;;;-148.88;100.00;77711.41;5016277;28;20108;-71
2022/12/04 08:03:17;;;;;;;53.35;15.32;;;;;;;-148.88;100.00;77715.47;5015981;28;20030;-72
2022/12/04 08:05:42;;;;;;;48.35;15.55;;;;;;;-148.88;100.00;77709.38;5015765;28;20455;-72
2022/12/04 08:08:08;;;;;;;48.17;15.45;;;;;;;-148.88;100.00;77711.41;5015923;28;20076;-72
2022/12/04 08:10:33;;;;;;;55.22;16.88;;;;;;;-148.88;100.00;77711.41;5015488;28;20022;-72
2022/12/04 08:12:59;;;;;;;57.63;16.90;;;;;;;-148.88;100.00;77707.34;5015644;28;20026;-72
2022/12/04 08:15:24;;;;;;;52.20;18.60;;;;;;;-148.88;100.00;77701.25;5015668;28;20095;-71
2022/12/04 08:17:49;;;;;;;58.95;17.98;;;;;;;-148.88;100.00;77703.28;5016198;28;20037;-71
2022/12/04 08:20:15;;;;;;;48.30;16.55;;;;;;;-148.88;100.00;77703.28;5015678;28;20025;-72
2022/12/04 08:22:40;;;;;;;47.03;15.60;;;;;;;-148.88;100.00;77695.16;5015636;28;20030;-71
2022/12/04 08:25:06;;;;;;;59.97;17.38;;;;;;;-148.88;100.00;77697.19;5015445;28;20073;-72
2022/12/04 08:27:32;;;;;;;54.92;17.92;;;;;;;-148.88;100.00;77695.16;5015506;28;20026;-72
2022/12/04 08:29:57;;;;;;;59.00;19.98;;;;;;;-148.88;100.00;77685.00;5015683;28;20038;-72
2022/12/04 08:32:22;;;;;;;58.53;19.35;;;;;;;-148.88;100.00;77685.00;5015316;28;20116;-72
2022/12/04 08:34:50;;;;;;;68.90;20.13;;;;;;;-148.88;100.00;77682.97;5015235;28;20025;-72
2022/12/04 08:37:15;;;;;;;58.05;19.25;;;;;;;-148.88;100.00;77682.97;5015261;28;20494;-72
2022/12/04 08:39:41;;;;;;;63.50;19.55;;;;;;;-148.88;100.00;77678.91;5014802;28;20451;-72
2022/12/04 08:42:08;;;;;;;62.63;19.35;;;;;;;-148.88;100.00;77682.97;5015285;28;20061;-72
2022/12/04 08:44:34;;;;;;;66.70;19.83;;;;;;;-148.88;100.00;77691.09;5015325;28;20109;-72
2022/12/04 08:46:59;;;;;;;64.45;19.27;;;;;;;-148.88;100.00;77676.88;5015157;28;20156;-72
2022/12/04 08:49:24;;;;;;;68.55;20.30;;;;;;;-148.88;100.00;77678.91;5015013;28;20479;-72
2022/12/04 08:51:50;;;;;;;62.13;20.02;;;;;;;-148.88;100.00;77676.88;5015239;28;20392;-72
2022/12/04 08:54:15;;;;;;;56.45;19.20;;;;;;;-148.88;100.00;77682.97;5014840;28;20424;-72
2022/12/04 08:56:43;;;;;;;60.85;19.30;;;;;;;-148.88;100.00;77685.00;5015028;28;20125;-72
2022/12/04 08:59:11;;;;;;;63.20;19.15;;;;;;;-148.88;100.00;77676.88;5015551;28;20485;-72
2022/12/04 09:01:36;;;;;;;61.40;18.70;;;;;;;-148.88;100.00;77676.88;5015149;28;20030;-72
2022/12/04 09:04:01;;;;;;;64.72;20.63;;;;;;;-148.88;100.00;77678.91;5012690;28;20376;-72
2022/12/04 09:06:27;;;;;;;60.95;19.70;;;;;;;-148.88;100.00;77674.84;5014792;28;20034;-72
2022/12/04 09:08:54;;;;;;;73.60;19.67;;;;;;;-148.88;100.00;77682.97;5014753;28;20029;-72
2022/12/04 09:11:22;;;;;;;76.18;21.58;;;;;;;-148.88;100.00;77676.88;5014664;28;20132;-72
2022/12/04 09:13:48;;;;;;;67.18;21.92;;;;;;;-148.88;100.00;77674.84;5014491;28;20045;-72
2022/12/04 09:16:16;;;;;;;72.65;22.20;;;;;;;-148.88;100.00;77676.88;5014652;28;20065;-72
2022/12/04 09:18:43;;;;;;;73.13;23.17;;;;;;;-148.88;100.00;77670.75;5013238;28;20542;-72
2022/12/04 09:21:10;;;;;;;73.88;21.77;;;;;;;-148.88;100.00;77674.84;5014946;28;20025;-72
2022/12/04 09:23:37;;;;;;;76.78;21.67;;;;;;;-148.88;100.00;77666.69;5014480;28;20022;-72
2022/12/04 09:26:04;;;;;;;69.68;21.80;;;;;;;-148.88;100.00;77666.69;5013094;28;20037;-73
2022/12/04 09:28:29;;;;;;;78.22;22.13;;;;;;;-148.88;100.00;77668.72;5014393;28;20030;-72
2022/12/04 09:31:00;;;;;;;71.95;22.20;;;;;;;-148.88;100.00;77666.69;5014372;28;20033;-72
2022/12/04 09:33:25;;;;;;;66.07;21.55;;;;;;;-148.88;100.00;77670.75;5014465;28;20018;-72
2022/12/04 09:35:51;;;;;;;69.60;24.08;;;;;;;-148.88;100.00;77660.59;5012901;28;20104;-72
2022/12/04 09:38:16;;;;;;;78.75;23.50;;;;;;;-148.88;100.00;77662.63;5012886;28;20029;-72
2022/12/04 09:41:21;;;;;;;80.07;24.08;;;;;;;-148.88;100.00;77658.56;5014170;28;20416;-72
2022/12/04 09:43:56;;;;;;;75.97;24.20;;;;;;;-148.88;100.00;77662.63;5012738;28;20025;-73
2022/12/04 09:46:53;;;;;;;75.82;22.25;;;;;;;-148.88;100.00;77660.59;5014146;28;20036;-72
2022/12/04 09:49:35;;;;;;;75.10;23.98;;;;;;;-148.88;100.00;77652.47;4979711;28;20511;-72
2022/12/04 09:52:05;;;;;;;79.55;24.25;;;;;;;-148.88;100.00;77654.50;5014054;28;20029;-72
2022/12/04 09:54:38;;;;;;;82.00;23.92;;;;;;;-148.88;100.00;77658.56;5013905;28;20032;-72
2022/12/04 09:57:24;;;;;;;82.03;24.00;;;;;;;-148.88;100.00;77654.50;5014024;28;20034;-72
2022/12/04 09:59:50;;;;;;;80.68;24.63;;;;;;;-148.88;100.00;77652.47;5014210;28;20037;-72
2022/12/04 10:02:36;;;;;;;81.65;24.20;;;;;;;-148.88;100.00;77650.44;5014072;28;20061;-72
2022/12/04 10:05:02;;;;;;;69.20;22.60;;;;;;;-148.88;100.00;77648.41;5014049;28;20030;-72
2022/12/04 10:07:59;;;;;;;73.70;22.55;;;;;;;-148.88;100.00;77638.25;5013716;28;20026;-72
2022/12/04 10:10:39;;;;;;;82.20;24.63;;;;;;;-148.88;100.00;77644.34;5012949;28;20037;-72
2022/12/04 10:13:11;;;;;;;79.90;23.92;;;;;;;-148.88;100.00;77636.22;5012293;28;20056;-72
2022/12/04 10:16:06;;;;;;;85.03;24.70;;;;;;;-148.88;100.00;77634.19;5011951;28;20189;-72
2022/12/04 10:18:43;;;;;;;75.13;23.30;;;;;;;-148.88;100.00;77638.25;4996031;28;20395;-72
2022/12/04 10:21:37;;;;;;;69.00;22.48;;;;;;;-148.88;100.00;77634.19;5013905;28;20140;-72
2022/12/04 10:24:37;;;;;;;76.90;24.30;;;;;;;-148.88;100.00;77638.25;5009457;28;20113;-72
2022/12/04 10:27:27;;;;;;;75.30;24.40;;;;;;;-148.88;100.00;77638.25;5012102;28;20128;-72
2022/12/04 10:30:03;;;;;;;67.97;22.63;;;;;;;-148.88;100.00;77634.19;5012145;28;20022;-72
2022/12/04 10:32:32;;;;;;;79.47;23.38;;;;;;;-148.88;100.00;77630.13;5012027;28;20111;-72
2022/12/04 10:35:19;;;;;;;75.63;24.08;;;;;;;-148.88;100.00;77632.16;5013345;28;20021;-72
2022/12/04 10:37:46;;;;;;;70.15;22.70;;;;;;;-148.88;100.00;77636.22;5012014;28;20396;-72
2022/12/04 10:40:22;;;;;;;73.88;22.75;;;;;;;-148.88;100.00;77636.22;5013162;28;20029;-72
2022/12/04 10:43:08;;;;;;;63.92;22.88;;;;;;;-148.88;100.00;77626.06;5013462;28;20026;-72
2022/12/04 10:45:34;;;;;;;75.45;23.83;;;;;;;-148.88;100.00;77622.00;5011978;28;20076;-72
2022/12/04 10:47:59;;;;;;;66.20;22.30;;;;;;;-148.88;100.00;77624.03;5013181;28;20192;-72
2022/12/04 10:50:25;;;;;;;74.05;24.58;;;;;;;-148.88;100.00;77624.03;5013219;28;20050;-72
2022/12/04 10:52:50;;;;;;;73.03;22.38;;;;;;;-148.88;100.00;77622.00;5013188;28;20109;-72
2022/12/04 10:55:28;;;;;;;80.68;23.73;;;;;;;-148.88;100.00;77626.06;5011571;28;20165;-72
2022/12/04 10:57:53;;;;;;;84.25;23.27;;;;;;;-148.88;100.00;77617.94;5013208;28;20393;-71
2022/12/04 11:00:33;;;;;;;80.75;23.85;;;;;;;-148.88;100.00;77611.84;5013428;28;20484;-71
2022/12/04 11:03:01;;;;;;;65.47;22.73;;;;;;;-148.88;100.00;77605.75;5013090;28;20037;-71
2022/12/04 11:05:33;;;;;;;68.00;21.98;;;;;;;-148.88;100.00;77613.88;5012984;28;20029;-72
2022/12/04 11:08:02;;;;;;;76.85;22.73;;;;;;;-148.88;100.00;77615.91;5013357;28;20030;-72
2022/12/04 11:10:33;;;;;;;71.35;23.35;;;;;;;-148.88;100.00;77609.81;5013049;28;20022;-71
2022/12/04 11:13:09;;;;;;;78.72;25.10;;;;;;;-148.88;100.00;77617.94;5012872;28;20108;-74
2022/12/04 11:15:41;;;;;;;72.78;23.67;;;;;;;-148.88;100.00;77615.91;5011795;28;20033;-74
2022/12/04 11:18:19;;;;;;;71.88;22.08;;;;;;;-148.88;100.00;77605.75;5013194;28;20030;-75
2022/12/04 11:20:56;;;;;;;71.88;22.80;;;;;;;-148.88;100.00;77591.50;5011694;28;20088;-75